Burbank, CA (91501)

4:18 AM PST on December 26, 2014 (GMT -0800)
Castle Heights | Change Station
CLOSE
Current Station
Personal Weather Station
Location: Glendale, CA
Elevation: 771 ft
Nearby Weather Stations
Active Advisory: Wind Advisory

Elev 771 ft 34.18 °N, 118.29 °W | Updated 24 seconds ago

Clear
Clear
41.7 °F
Feels Like 42 °F
N
0.0
Wind Variable Wind from ESE
Gusts 1.0 mph

Today
High -- | Low -- °F
--% Chance of Precip.
Yesterday
High -- | Low -- °F
Precip. -- in
6:57 AM 4:50 PM
Waxing Crescent, 25% visible
Pressure 29.94 in
Visibility 10.0 miles
Clouds Clear
Windchill 42 °F
Dew Point 22 °F
Humidity 45%
Rainfall 0.00 in
Snow Depth Not available.
UV 0 out of 12
Pollen 7.00 out of 12
Air Quality Not available.
Flu Activity Not available.
METAR KBUR 261153Z 32009KT 10SM CLR 09/M08 A2996 RMK AO2 SLP138 T00891083 10100 20072 53005

More Conditions Fewer Conditions

Pressure 29.94 in
Visibility 10.0 miles
Clouds Clear
Windchill 42 °F
Dew Point 22 °F
Humidity 45%
Rainfall 0.00 in
Snow Depth Not available.
UV 0 out of 12
Pollen 7.00 out of 12
Air Quality Not available.
Flu Activity Not available.
METAR KBUR 261153Z 32009KT 10SM CLR 09/M08 A2996 RMK AO2 SLP138 T00891083 10100 20072 53005

More Conditions Fewer Conditions

10-Day Weather Forecast

Almanac

Astronomy

Dec. 26, 2014 Rise Set
Actual Time
Civil Twilight
Nautical Twilight
Astronomical Twilight
Moon
Length of Visible Light
Length of Day
Tomorrow will be .
, % of the Moon is Illuminated

Today's Extremes

State Highs State Lows

Community

WunderPhotos

Upload Photos

1,780,584 photos uploaded!

WunderBlogs® & News

Nearby

Air Quality

  Air Quality AQ Index Pollutant
Not available.

Snow Depth

Station Depth Elevation

Earthquake Activity

City Distance Mag. Time & Date
Minimum magnitude displayed is 2.5.

Coastal Water Temperatures

Place Temperature

Nearby Weather Stations